sensor_id;sensor_type;location;lat;lon;timestamp;pressure;altitude;pressure_sealevel;temperature;humidity
9110;BME280;4590;51.462;6.692;2022-07-29T00:00:38;101382.28;;;21.65;38.39
9110;BME280;4590;51.462;6.692;2022-07-29T00:03:04;101380.31;;;21.65;38.41
9110;BME280;4590;51.462;6.692;2022-07-29T00:05:29;101373.72;;;21.58;38.73
9110;BME280;4590;51.462;6.692;2022-07-29T00:07:54;101379.84;;;21.63;38.40
9110;BME280;4590;51.462;6.692;2022-07-29T00:10:20;101374.84;;;21.53;38.40
9110;BME280;4590;51.462;6.692;2022-07-29T00:12:45;101373.44;;;21.63;38.51
9110;BME280;4590;51.462;6.692;2022-07-29T00:15:11;101371.81;;;21.62;38.27
9110;BME280;4590;51.462;6.692;2022-07-29T00:17:36;101367.03;;;21.62;38.06
9110;BME280;4590;51.462;6.692;2022-07-29T00:20:01;101370.22;;;21.45;38.76
9110;BME280;4590;51.462;6.692;2022-07-29T00:22:27;101360.09;;;21.56;38.47
9110;BME280;4590;51.462;6.692;2022-07-29T00:24:52;101360.38;;;21.51;38.58
9110;BME280;4590;51.462;6.692;2022-07-29T00:27:17;101344.53;;;21.40;38.39
9110;BME280;4590;51.462;6.692;2022-07-29T00:29:43;101347.09;;;21.48;38.51
9110;BME280;4590;51.462;6.692;2022-07-29T00:32:08;101344.78;;;21.34;38.73
9110;BME280;4590;51.462;6.692;2022-07-29T00:34:34;101339.34;;;21.42;38.57
9110;BME280;4590;51.462;6.692;2022-07-29T00:37:17;101328.44;;;21.37;38.48
9110;BME280;4590;51.462;6.692;2022-07-29T00:39:43;101332.69;;;21.30;38.95
9110;BME280;4590;51.462;6.692;2022-07-29T00:42:08;101323.94;;;21.32;38.89
9110;BME280;4590;51.462;6.692;2022-07-29T00:44:37;101323.34;;;21.23;39.11
9110;BME280;4590;51.462;6.692;2022-07-29T00:47:03;101318.25;;;21.28;38.91
9110;BME280;4590;51.462;6.692;2022-07-29T00:49:28;101312.66;;;21.28;38.81
9110;BME280;4590;51.462;6.692;2022-07-29T00:51:54;101299.84;;;21.27;39.00
9110;BME280;4590;51.462;6.692;2022-07-29T00:54:19;101301.56;;;21.16;39.77
9110;BME280;4590;51.462;6.692;2022-07-29T00:56:44;101300.94;;;21.23;39.10
9110;BME280;4590;51.462;6.692;2022-07-29T00:59:09;101300.50;;;21.21;38.88
9110;BME280;4590;51.462;6.692;2022-07-29T01:01:35;101292.00;;;21.17;39.36
9110;BME280;4590;51.462;6.692;2022-07-29T01:04:00;101290.56;;;21.08;39.41
9110;BME280;4590;51.462;6.692;2022-07-29T01:06:26;101291.91;;;21.14;39.14
9110;BME280;4590;51.462;6.692;2022-07-29T01:08:51;101293.28;;;21.04;39.33
9110;BME280;4590;51.462;6.692;2022-07-29T01:11:17;101294.91;;;21.05;39.28
9110;BME280;4590;51.462;6.692;2022-07-29T01:13:44;101294.19;;;21.08;39.22
9110;BME280;4590;51.462;6.692;2022-07-29T01:16:25;101300.41;;;21.01;39.63
9110;BME280;4590;51.462;6.692;2022-07-29T01:18:56;101302.59;;;21.08;39.42
9110;BME280;4590;51.462;6.692;2022-07-29T01:21:44;101286.88;;;21.04;39.69
9110;BME280;4590;51.462;6.692;2022-07-29T01:24:31;101286.53;;;21.05;39.43
9110;BME280;4590;51.462;6.692;2022-07-29T01:27:26;101298.97;;;21.08;39.31
9110;BME280;4590;51.462;6.692;2022-07-29T01:29:59;101290.63;;;21.11;39.57
9110;BME280;4590;51.462;6.692;2022-07-29T01:32:29;101286.66;;;21.12;39.57
9110;BME280;4590;51.462;6.692;2022-07-29T01:35:21;101285.34;;;21.06;39.82
9110;BME280;4590;51.462;6.692;2022-07-29T01:37:49;101286.66;;;21.12;39.50
9110;BME280;4590;51.462;6.692;2022-07-29T01:40:31;101283.00;;;21.08;39.72
9110;BME280;4590;51.462;6.692;2022-07-29T01:43:00;101283.41;;;21.10;39.66
9110;BME280;4590;51.462;6.692;2022-07-29T01:45:38;101281.38;;;21.07;39.57
9110;BME280;4590;51.462;6.692;2022-07-29T01:48:27;101274.69;;;20.96;39.89
9110;BME280;4590;51.462;6.692;2022-07-29T01:51:04;101282.72;;;20.97;39.82
9110;BME280;4590;51.462;6.692;2022-07-29T01:56:23;101273.81;;;20.92;40.01
9110;BME280;4590;51.462;6.692;2022-07-29T01:58:49;101266.25;;;20.92;39.95
9110;BME280;4590;51.462;6.692;2022-07-29T02:01:17;101265.34;;;20.88;40.23
9110;BME280;4590;51.462;6.692;2022-07-29T02:03:45;101270.28;;;20.95;40.07
9110;BME280;4590;51.462;6.692;2022-07-29T02:06:12;101268.28;;;20.95;40.07
9110;BME280;4590;51.462;6.692;2022-07-29T02:08:40;101275.50;;;20.96;39.96
9110;BME280;4590;51.462;6.692;2022-07-29T02:11:06;101265.50;;;20.95;40.16
9110;BME280;4590;51.462;6.692;2022-07-29T02:13:34;101279.56;;;20.99;40.16
9110;BME280;4590;51.462;6.692;2022-07-29T02:16:02;101276.78;;;20.99;39.90
9110;BME280;4590;51.462;6.692;2022-07-29T02:18:30;101287.16;;;20.98;40.16
9110;BME280;4590;51.462;6.692;2022-07-29T02:20:56;101290.75;;;20.99;39.98
9110;BME280;4590;51.462;6.692;2022-07-29T02:23:23;101294.00;;;21.01;39.96
9110;BME280;4590;51.462;6.692;2022-07-29T02:25:52;101319.28;;;21.05;40.31
9110;BME280;4590;51.462;6.692;2022-07-29T02:28:18;101334.91;;;21.06;40.33
9110;BME280;4590;51.462;6.692;2022-07-29T02:30:45;101343.38;;;21.09;40.49
9110;BME280;4590;51.462;6.692;2022-07-29T02:33:14;101318.19;;;21.09;40.56
9110;BME280;4590;51.462;6.692;2022-07-29T02:35:41;101316.19;;;21.10;40.65
9110;BME280;4590;51.462;6.692;2022-07-29T02:38:10;101323.78;;;21.09;41.02
9110;BME280;4590;51.462;6.692;2022-07-29T02:40:56;101345.38;;;21.09;41.04
9110;BME280;4590;51.462;6.692;2022-07-29T02:43:24;101343.38;;;21.09;41.06
9110;BME280;4590;51.462;6.692;2022-07-29T02:45:52;101328.19;;;21.10;41.31
9110;BME280;4590;51.462;6.692;2022-07-29T02:48:19;101324.16;;;21.08;41.39
9110;BME280;4590;51.462;6.692;2022-07-29T02:50:50;101314.84;;;21.04;41.24
9110;BME280;4590;51.462;6.692;2022-07-29T02:53:21;101321.16;;;21.00;41.04
9110;BME280;4590;51.462;6.692;2022-07-29T02:58:22;101332.03;;;20.86;42.65
9110;BME280;4590;51.462;6.692;2022-07-29T03:00:53;101328.84;;;20.88;43.25
9110;BME280;4590;51.462;6.692;2022-07-29T03:03:20;101329.47;;;20.81;44.22
9110;BME280;4590;51.462;6.692;2022-07-29T03:05:46;101326.16;;;20.76;44.78
9110;BME280;4590;51.462;6.692;2022-07-29T03:08:12;101329.13;;;20.67;44.46
9110;BME280;4590;51.462;6.692;2022-07-29T03:10:43;101332.00;;;20.55;45.42
9110;BME280;4590;51.462;6.692;2022-07-29T03:13:09;101321.44;;;20.48;45.68
9110;BME280;4590;51.462;6.692;2022-07-29T03:15:35;101325.53;;;20.23;49.00
9110;BME280;4590;51.462;6.692;2022-07-29T03:18:01;101325.75;;;20.30;46.25
9110;BME280;4590;51.462;6.692;2022-07-29T03:20:27;101322.53;;;20.16;47.78
9110;BME280;4590;51.462;6.692;2022-07-29T03:22:52;101320.19;;;20.18;46.60
9110;BME280;4590;51.462;6.692;2022-07-29T03:25:19;101331.66;;;20.13;46.49
9110;BME280;4590;51.462;6.692;2022-07-29T03:27:45;101339.47;;;20.07;47.11
9110;BME280;4590;51.462;6.692;2022-07-29T03:30:12;101329.47;;;20.06;47.25
9110;BME280;4590;51.462;6.692;2022-07-29T03:32:39;101335.28;;;20.01;47.07
9110;BME280;4590;51.462;6.692;2022-07-29T03:35:04;101346.75;;;19.96;46.93
9110;BME280;4590;51.462;6.692;2022-07-29T03:37:30;101350.25;;;19.93;47.18
9110;BME280;4590;51.462;6.692;2022-07-29T03:39:57;101353.03;;;19.93;47.57
9110;BME280;4590;51.462;6.692;2022-07-29T03:42:24;101342.91;;;19.88;47.57
9110;BME280;4590;51.462;6.692;2022-07-29T03:44:52;101356.53;;;19.90;47.59
9110;BME280;4590;51.462;6.692;2022-07-29T03:47:22;101376.44;;;19.88;47.61
9110;BME280;4590;51.462;6.692;2022-07-29T03:49:50;101379.69;;;19.90;47.27
9110;BME280;4590;51.462;6.692;2022-07-29T03:52:17;101398.88;;;19.92;47.12
9110;BME280;4590;51.462;6.692;2022-07-29T03:54:42;101406.91;;;19.93;47.34
9110;BME280;4590;51.462;6.692;2022-07-29T03:57:10;101395.84;;;19.97;47.00
9110;BME280;4590;51.462;6.692;2022-07-29T03:59:36;101379.91;;;19.98;46.78
9110;BME280;4590;51.462;6.692;2022-07-29T04:02:04;101378.28;;;19.96;47.10
9110;BME280;4590;51.462;6.692;2022-07-29T04:04:32;101382.59;;;19.94;46.94
9110;BME280;4590;51.462;6.692;2022-07-29T04:06:58;101368.16;;;19.92;46.94
9110;BME280;4590;51.462;6.692;2022-07-29T04:09:23;101389.22;;;19.89;47.50
9110;BME280;4590;51.462;6.692;2022-07-29T04:11:49;101392.72;;;19.86;48.07
9110;BME280;4590;51.462;6.692;2022-07-29T04:14:14;101391.22;;;19.89;48.97
9110;BME280;4590;51.462;6.692;2022-07-29T04:16:40;101386.44;;;19.89;49.73
9110;BME280;4590;51.462;6.692;2022-07-29T04:19:05;101372.47;;;19.89;50.81
9110;BME280;4590;51.462;6.692;2022-07-29T04:21:30;101364.44;;;19.88;51.29
9110;BME280;4590;51.462;6.692;2022-07-29T04:23:56;101362.00;;;19.86;51.98
9110;BME280;4590;51.462;6.692;2022-07-29T04:26:21;101353.16;;;19.84;52.37
9110;BME280;4590;51.462;6.692;2022-07-29T04:28:46;101349.13;;;19.82;52.51
9110;BME280;4590;51.462;6.692;2022-07-29T04:31:12;101346.22;;;19.78;52.43
9110;BME280;4590;51.462;6.692;2022-07-29T04:33:38;101334.47;;;19.73;53.15
9110;BME280;4590;51.462;6.692;2022-07-29T04:36:04;101338.38;;;19.56;53.81
9110;BME280;4590;51.462;6.692;2022-07-29T04:38:29;101337.09;;;19.53;52.46
9110;BME280;4590;51.462;6.692;2022-07-29T04:40:55;101335.81;;;19.39;53.01
9110;BME280;4590;51.462;6.692;2022-07-29T04:43:20;101302.69;;;19.25;53.49
9110;BME280;4590;51.462;6.692;2022-07-29T04:45:45;101296.00;;;19.14;53.74
9110;BME280;4590;51.462;6.692;2022-07-29T04:48:11;101302.41;;;19.02;54.41
9110;BME280;4590;51.462;6.692;2022-07-29T04:50:39;101307.16;;;18.89;54.75
9110;BME280;4590;51.462;6.692;2022-07-29T04:53:05;101300.06;;;18.80;54.63
9110;BME280;4590;51.462;6.692;2022-07-29T04:55:30;101308.91;;;18.70;54.85
9110;BME280;4590;51.462;6.692;2022-07-29T04:57:56;101307.38;;;18.60;54.99
9110;BME280;4590;51.462;6.692;2022-07-29T05:00:21;101311.06;;;18.52;54.95
9110;BME280;4590;51.462;6.692;2022-07-29T05:02:48;101323.69;;;18.49;55.52
9110;BME280;4590;51.462;6.692;2022-07-29T05:05:13;101336.81;;;18.49;55.64
9110;BME280;4590;51.462;6.692;2022-07-29T05:07:38;101340.91;;;18.51;55.84
9110;BME280;4590;51.462;6.692;2022-07-29T05:10:04;101348.22;;;18.56;55.68
9110;BME280;4590;51.462;6.692;2022-07-29T05:12:30;101346.25;;;18.56;55.52
9110;BME280;4590;51.462;6.692;2022-07-29T05:14:55;101335.44;;;18.55;55.47
9110;BME280;4590;51.462;6.692;2022-07-29T05:17:20;101323.69;;;18.49;55.34
9110;BME280;4590;51.462;6.692;2022-07-29T05:19:46;101318.34;;;18.44;55.73
9110;BME280;4590;51.462;6.692;2022-07-29T05:22:11;101315.09;;;18.42;55.96
9110;BME280;4590;51.462;6.692;2022-07-29T05:24:36;101315.47;;;18.41;56.04
9110;BME280;4590;51.462;6.692;2022-07-29T05:27:02;101324.25;;;18.43;56.18
9110;BME280;4590;51.462;6.692;2022-07-29T05:29:27;101323.81;;;18.41;56.55
9110;BME280;4590;51.462;6.692;2022-07-29T05:31:52;101328.91;;;18.39;56.74
9110;BME280;4590;51.462;6.692;2022-07-29T05:34:18;101316.72;;;18.43;56.72
9110;BME280;4590;51.462;6.692;2022-07-29T05:36:44;101313.72;;;18.48;56.57
9110;BME280;4590;51.462;6.692;2022-07-29T05:39:10;101324.53;;;18.50;56.89
9110;BME280;4590;51.462;6.692;2022-07-29T05:41:35;101334.16;;;18.52;56.47
9110;BME280;4590;51.462;6.692;2022-07-29T05:44:00;101332.06;;;18.49;56.41
9110;BME280;4590;51.462;6.692;2022-07-29T05:46:26;101338.31;;;18.46;56.22
9110;BME280;4590;51.462;6.692;2022-07-29T05:48:51;101347.25;;;18.40;56.16
9110;BME280;4590;51.462;6.692;2022-07-29T05:51:16;101344.22;;;18.33;55.87
9110;BME280;4590;51.462;6.692;2022-07-29T05:53:41;101347.22;;;18.28;55.82
9110;BME280;4590;51.462;6.692;2022-07-29T05:56:07;101353.84;;;18.23;56.02
9110;BME280;4590;51.462;6.692;2022-07-29T05:58:32;101346.16;;;18.20;56.13
9110;BME280;4590;51.462;6.692;2022-07-29T06:00:58;101345.78;;;18.09;56.36
9110;BME280;4590;51.462;6.692;2022-07-29T06:03:26;101338.34;;;18.13;56.77
9110;BME280;4590;51.462;6.692;2022-07-29T06:05:51;101337.66;;;18.16;56.64
9110;BME280;4590;51.462;6.692;2022-07-29T06:08:17;101335.00;;;18.20;56.66
9110;BME280;4590;51.462;6.692;2022-07-29T06:10:42;101329.91;;;18.22;56.77
9110;BME280;4590;51.462;6.692;2022-07-29T06:13:08;101314.94;;;18.27;56.61
9110;BME280;4590;51.462;6.692;2022-07-29T06:15:33;101326.69;;;18.32;56.48
9110;BME280;4590;51.462;6.692;2022-07-29T06:17:59;101312.19;;;18.39;56.80
9110;BME280;4590;51.462;6.692;2022-07-29T06:20:24;101307.66;;;18.46;57.01
9110;BME280;4590;51.462;6.692;2022-07-29T06:22:49;101300.03;;;18.55;56.93
9110;BME280;4590;51.462;6.692;2022-07-29T06:25:14;101307.97;;;18.66;56.92
9110;BME280;4590;51.462;6.692;2022-07-29T06:27:40;101299.84;;;18.73;56.85
9110;BME280;4590;51.462;6.692;2022-07-29T06:30:05;101300.53;;;18.82;56.96
9110;BME280;4590;51.462;6.692;2022-07-29T06:32:33;101295.66;;;18.91;57.34
9110;BME280;4590;51.462;6.692;2022-07-29T06:34:58;101299.97;;;19.01;56.82
9110;BME280;4590;51.462;6.692;2022-07-29T06:37:23;101292.63;;;19.08;56.43
9110;BME280;4590;51.462;6.692;2022-07-29T06:39:48;101307.84;;;19.11;56.28
9110;BME280;4590;51.462;6.692;2022-07-29T06:42:34;101312.50;;;19.19;55.71
9110;BME280;4590;51.462;6.692;2022-07-29T06:44:59;101321.88;;;19.26;55.42
9110;BME280;4590;51.462;6.692;2022-07-29T06:47:24;101328.03;;;19.32;54.87
9110;BME280;4590;51.462;6.692;2022-07-29T06:49:50;101336.41;;;19.32;55.15
9110;BME280;4590;51.462;6.692;2022-07-29T06:52:15;101352.34;;;19.32;54.14
9110;BME280;4590;51.462;6.692;2022-07-29T06:54:40;101370.03;;;19.36;53.73
9110;BME280;4590;51.462;6.692;2022-07-29T06:57:12;101382.78;;;19.37;53.61
9110;BME280;4590;51.462;6.692;2022-07-29T06:59:37;101395.56;;;19.38;53.71
9110;BME280;4590;51.462;6.692;2022-07-29T07:02:03;101400.00;;;19.39;53.77
9110;BME280;4590;51.462;6.692;2022-07-29T07:04:28;101398.47;;;19.41;53.47
9110;BME280;4590;51.462;6.692;2022-07-29T07:06:53;101406.97;;;19.45;53.48
9110;BME280;4590;51.462;6.692;2022-07-29T07:09:20;101417.94;;;19.50;54.11
9110;BME280;4590;51.462;6.692;2022-07-29T07:11:46;101420.00;;;19.53;54.40
9110;BME280;4590;51.462;6.692;2022-07-29T07:14:11;101420.00;;;19.53;54.15
9110;BME280;4590;51.462;6.692;2022-07-29T07:16:36;101426.88;;;19.55;53.93
9110;BME280;4590;51.462;6.692;2022-07-29T07:19:02;101411.41;;;19.58;53.94
9110;BME280;4590;51.462;6.692;2022-07-29T07:21:27;101417.47;;;19.60;54.67
9110;BME280;4590;51.462;6.692;2022-07-29T07:23:53;101422.34;;;19.63;54.75
9110;BME280;4590;51.462;6.692;2022-07-29T07:26:18;101432.00;;;19.66;55.11
9110;BME280;4590;51.462;6.692;2022-07-29T07:28:44;101427.66;;;19.68;55.46
9110;BME280;4590;51.462;6.692;2022-07-29T07:31:10;101435.69;;;19.70;55.83
9110;BME280;4590;51.462;6.692;2022-07-29T07:33:35;101426.16;;;19.71;56.37
9110;BME280;4590;51.462;6.692;2022-07-29T07:36:00;101425.81;;;19.72;56.62
9110;BME280;4590;51.462;6.692;2022-07-29T07:38:26;101419.06;;;19.73;56.61
9110;BME280;4590;51.462;6.692;2022-07-29T07:40:51;101417.09;;;19.74;56.46
9110;BME280;4590;51.462;6.692;2022-07-29T07:43:16;101408.34;;;19.75;56.88
9110;BME280;4590;51.462;6.692;2022-07-29T07:45:42;101413.59;;;19.77;56.67
9110;BME280;4590;51.462;6.692;2022-07-29T07:48:07;101408.81;;;19.77;56.92
9110;BME280;4590;51.462;6.692;2022-07-29T07:50:35;101410.44;;;19.78;57.19
9110;BME280;4590;51.462;6.692;2022-07-29T07:53:00;101417.31;;;19.81;56.87
9110;BME280;4590;51.462;6.692;2022-07-29T07:55:27;101404.16;;;19.81;57.30
9110;BME280;4590;51.462;6.692;2022-07-29T07:57:53;101408.59;;;19.82;57.35
9110;BME280;4590;51.462;6.692;2022-07-29T08:00:19;101409.84;;;19.85;57.25
9110;BME280;4590;51.462;6.692;2022-07-29T08:02:45;101413.25;;;19.78;58.63
9110;BME280;4590;51.462;6.692;2022-07-29T08:05:11;101410.66;;;19.85;57.11
9110;BME280;4590;51.462;6.692;2022-07-29T08:07:38;101406.59;;;19.83;56.90
9110;BME280;4590;51.462;6.692;2022-07-29T08:10:04;101411.38;;;19.82;57.42
9110;BME280;4590;51.462;6.692;2022-07-29T08:12:30;101412.06;;;19.79;57.58
9110;BME280;4590;51.462;6.692;2022-07-29T08:14:55;101415.91;;;19.75;57.81
9110;BME280;4590;51.462;6.692;2022-07-29T08:17:20;101408.94;;;19.69;57.82
9110;BME280;4590;51.462;6.692;2022-07-29T08:19:45;101405.13;;;19.61;58.52
9110;BME280;4590;51.462;6.692;2022-07-29T08:22:13;101399.31;;;19.54;58.42
9110;BME280;4590;51.462;6.692;2022-07-29T08:24:39;101401.41;;;19.45;58.70
9110;BME280;4590;51.462;6.692;2022-07-29T08:27:18;101404.75;;;19.38;59.33
9110;BME280;4590;51.462;6.692;2022-07-29T08:29:44;101405.47;;;19.35;60.22
9110;BME280;4590;51.462;6.692;2022-07-29T08:32:09;101406.28;;;19.36;60.85
9110;BME280;4590;51.462;6.692;2022-07-29T08:34:34;101405.91;;;19.37;61.18
9110;BME280;4590;51.462;6.692;2022-07-29T08:37:00;101402.31;;;19.37;61.03
9110;BME280;4590;51.462;6.692;2022-07-29T08:39:25;101405.56;;;19.39;61.65
9110;BME280;4590;51.462;6.692;2022-07-29T08:41:51;101403.25;;;19.41;61.57
9110;BME280;4590;51.462;6.692;2022-07-29T08:44:19;101401.63;;;19.40;61.70
9110;BME280;4590;51.462;6.692;2022-07-29T08:46:46;101416.03;;;19.42;61.45
9110;BME280;4590;51.462;6.692;2022-07-29T08:49:12;101416.50;;;19.44;62.09
9110;BME280;4590;51.462;6.692;2022-07-29T08:51:39;101415.81;;;19.47;62.16
9110;BME280;4590;51.462;6.692;2022-07-29T08:54:05;101423.97;;;19.52;62.23
9110;BME280;4590;51.462;6.692;2022-07-29T08:56:31;101420.94;;;19.57;62.57
9110;BME280;4590;51.462;6.692;2022-07-29T08:58:58;101415.59;;;19.64;62.56
9110;BME280;4590;51.462;6.692;2022-07-29T09:01:24;101420.38;;;19.64;63.44
9110;BME280;4590;51.462;6.692;2022-07-29T09:03:55;101423.00;;;19.72;62.23
9110;BME280;4590;51.462;6.692;2022-07-29T09:06:21;101406.50;;;19.79;62.81
9110;BME280;4590;51.462;6.692;2022-07-29T09:08:47;101417.03;;;19.86;62.31
9110;BME280;4590;51.462;6.692;2022-07-29T09:11:13;101411.69;;;19.93;62.62
9110;BME280;4590;51.462;6.692;2022-07-29T09:13:39;101412.69;;;20.01;61.99
9110;BME280;4590;51.462;6.692;2022-07-29T09:16:04;101413.72;;;20.08;61.62
9110;BME280;4590;51.462;6.692;2022-07-29T09:21:00;101405.66;;;20.19;60.98
9110;BME280;4590;51.462;6.692;2022-07-29T09:26:30;101400.41;;;20.17;58.95
9110;BME280;4590;51.462;6.692;2022-07-29T09:28:56;101405.94;;;20.14;58.32
9110;BME280;4590;51.462;6.692;2022-07-29T09:31:37;101400.94;;;20.07;58.54
9110;BME280;4590;51.462;6.692;2022-07-29T09:34:04;101402.66;;;20.12;58.27
9110;BME280;4590;51.462;6.692;2022-07-29T09:36:29;101400.69;;;20.12;57.91
9110;BME280;4590;51.462;6.692;2022-07-29T09:38:59;101399.06;;;20.11;58.12
9110;BME280;4590;51.462;6.692;2022-07-29T09:41:29;101397.16;;;20.15;57.93
9110;BME280;4590;51.462;6.692;2022-07-29T09:43:58;101392.84;;;20.18;58.01
9110;BME280;4590;51.462;6.692;2022-07-29T09:46:24;101404.25;;;20.25;57.85
9110;BME280;4590;51.462;6.692;2022-07-29T09:49:06;101389.09;;;20.26;58.92
9110;BME280;4590;51.462;6.692;2022-07-29T09:51:31;101394.41;;;20.43;59.22
9110;BME280;4590;51.462;6.692;2022-07-29T09:53:56;101390.28;;;20.53;59.68
9110;BME280;4590;51.462;6.692;2022-07-29T09:56:41;101397.22;;;20.59;60.52
9110;BME280;4590;51.462;6.692;2022-07-29T09:59:08;101395.16;;;20.72;60.16
9110;BME280;4590;51.462;6.692;2022-07-29T10:01:34;101392.19;;;20.80;60.23
9110;BME280;4590;51.462;6.692;2022-07-29T10:04:01;101395.19;;;20.87;60.25
9110;BME280;4590;51.462;6.692;2022-07-29T10:06:26;101385.25;;;20.90;60.23
9110;BME280;4590;51.462;6.692;2022-07-29T10:08:52;101384.97;;;20.95;60.40
9110;BME280;4590;51.462;6.692;2022-07-29T10:11:17;101391.47;;;20.99;60.13
9110;BME280;4590;51.462;6.692;2022-07-29T10:13:46;101385.63;;;21.04;59.99
9110;BME280;4590;51.462;6.692;2022-07-29T10:16:13;101386.06;;;21.06;60.16
9110;BME280;4590;51.462;6.692;2022-07-29T10:18:40;101387.34;;;21.09;60.14
9110;BME280;4590;51.462;6.692;2022-07-29T10:21:06;101388.22;;;21.13;60.38
9110;BME280;4590;51.462;6.692;2022-07-29T10:23:33;101383.06;;;21.15;60.05
9110;BME280;4590;51.462;6.692;2022-07-29T10:26:00;101388.75;;;21.18;59.94
9110;BME280;4590;51.462;6.692;2022-07-29T10:28:25;101405.31;;;21.23;59.82
9110;BME280;4590;51.462;6.692;2022-07-29T10:30:52;101394.19;;;21.27;59.88
9110;BME280;4590;51.462;6.692;2022-07-29T10:39:41;101400.66;;;21.47;59.14
9110;BME280;4590;51.462;6.692;2022-07-29T10:42:19;101412.38;;;21.68;58.96
9110;BME280;4590;51.462;6.692;2022-07-29T10:44:46;101402.78;;;21.88;58.87
9110;BME280;4590;51.462;6.692;2022-07-29T10:47:25;101413.59;;;22.05;58.66
9110;BME280;4590;51.462;6.692;2022-07-29T10:49:57;101407.44;;;22.35;57.72
9110;BME280;4590;51.462;6.692;2022-07-29T10:52:23;101413.81;;;22.55;56.90
9110;BME280;4590;51.462;6.692;2022-07-29T10:54:52;101409.34;;;22.73;56.44
9110;BME280;4590;51.462;6.692;2022-07-29T10:57:22;101406.44;;;22.89;56.82
9110;BME280;4590;51.462;6.692;2022-07-29T11:05:05;101405.34;;;23.42;53.23
9110;BME280;4590;51.462;6.692;2022-07-29T11:07:32;101410.81;;;23.58;53.08
9110;BME280;4590;51.462;6.692;2022-07-29T11:15:02;101415.34;;;23.96;50.22
9110;BME280;4590;51.462;6.692;2022-07-29T11:17:28;101409.22;;;24.17;51.23
9110;BME280;4590;51.462;6.692;2022-07-29T11:20:30;101416.06;;;24.20;50.64
9110;BME280;4590;51.462;6.692;2022-07-29T11:22:51;101420.28;;;24.33;50.10
9110;BME280;4590;51.462;6.692;2022-07-29T11:25:17;101419.03;;;24.30;49.91
9110;BME280;4590;51.462;6.692;2022-07-29T11:27:44;101419.97;;;24.41;49.94
9110;BME280;4590;51.462;6.692;2022-07-29T11:30:10;101418.78;;;24.42;50.01
9110;BME280;4590;51.462;6.692;2022-07-29T11:32:39;101410.81;;;24.48;49.35
9110;BME280;4590;51.462;6.692;2022-07-29T11:35:14;101416.88;;;24.50;49.08
9110;BME280;4590;51.462;6.692;2022-07-29T11:37:40;101417.34;;;24.59;48.66
9110;BME280;4590;51.462;6.692;2022-07-29T11:47:29;101414.44;;;24.89;47.08
9110;BME280;4590;51.462;6.692;2022-07-29T11:49:56;101422.91;;;24.93;45.94
9110;BME280;4590;51.462;6.692;2022-07-29T11:52:33;101423.31;;;24.91;44.87
9110;BME280;4590;51.462;6.692;2022-07-29T11:55:04;101421.38;;;24.95;45.58
9110;BME280;4590;51.462;6.692;2022-07-29T11:57:30;101419.38;;;24.96;46.04
9110;BME280;4590;51.462;6.692;2022-07-29T11:59:56;101422.19;;;24.96;45.97
9110;BME280;4590;51.462;6.692;2022-07-29T12:02:22;101422.56;;;24.94;45.34
9110;BME280;4590;51.462;6.692;2022-07-29T12:04:56;101424.13;;;24.92;44.60
9110;BME280;4590;51.462;6.692;2022-07-29T12:07:29;101421.31;;;24.92;45.18
9110;BME280;4590;51.462;6.692;2022-07-29T12:09:54;101418.47;;;24.92;45.37
9110;BME280;4590;51.462;6.692;2022-07-29T12:12:20;101417.34;;;24.96;44.61
9110;BME280;4590;51.462;6.692;2022-07-29T12:14:46;101420.97;;;24.97;44.57
9110;BME280;4590;51.462;6.692;2022-07-29T12:19:54;101416.47;;;24.92;44.71
9110;BME280;4590;51.462;6.692;2022-07-29T12:22:26;101416.44;;;24.89;44.60
9110;BME280;4590;51.462;6.692;2022-07-29T12:24:53;101416.88;;;24.91;45.02
9110;BME280;4590;51.462;6.692;2022-07-29T12:27:18;101418.88;;;24.90;45.20
9110;BME280;4590;51.462;6.692;2022-07-29T12:29:44;101411.19;;;24.87;44.49
9110;BME280;4590;51.462;6.692;2022-07-29T12:32:09;101431.75;;;24.91;44.61
9110;BME280;4590;51.462;6.692;2022-07-29T12:34:35;101420.09;;;24.93;44.71
9110;BME280;4590;51.462;6.692;2022-07-29T12:37:00;101427.00;;;24.95;44.35
9110;BME280;4590;51.462;6.692;2022-07-29T12:39:26;101431.44;;;24.96;43.64
9110;BME280;4590;51.462;6.692;2022-07-29T12:41:53;101429.44;;;24.97;43.65
9110;BME280;4590;51.462;6.692;2022-07-29T12:44:19;101429.44;;;24.97;43.28
9110;BME280;4590;51.462;6.692;2022-07-29T12:46:44;101428.19;;;24.94;43.34
9110;BME280;4590;51.462;6.692;2022-07-29T12:49:21;101427.31;;;24.87;43.20
9110;BME280;4590;51.462;6.692;2022-07-29T12:51:46;101423.72;;;24.93;43.83
9110;BME280;4590;51.462;6.692;2022-07-29T12:54:13;101428.56;;;24.93;43.51
9110;BME280;4590;51.462;6.692;2022-07-29T12:56:40;101426.19;;;24.95;43.24
9110;BME280;4590;51.462;6.692;2022-07-29T12:59:20;101421.69;;;24.90;43.43
9110;BME280;4590;51.462;6.692;2022-07-29T13:01:48;101416.59;;;25.03;43.38
9110;BME280;4590;51.462;6.692;2022-07-29T13:04:28;101421.84;;;25.01;42.84
9110;BME280;4590;51.462;6.692;2022-07-29T13:07:04;101421.84;;;25.01;42.43
9110;BME280;4590;51.462;6.692;2022-07-29T13:09:42;101421.03;;;25.00;42.18
9110;BME280;4590;51.462;6.692;2022-07-29T13:12:10;101416.19;;;25.01;42.30
9110;BME280;4590;51.462;6.692;2022-07-29T13:14:44;101424.91;;;24.92;42.22
9110;BME280;4590;51.462;6.692;2022-07-29T13:17:14;101424.19;;;24.95;42.17
9110;BME280;4590;51.462;6.692;2022-07-29T13:19:41;101436.19;;;24.92;42.83
9110;BME280;4590;51.462;6.692;2022-07-29T13:22:11;101430.94;;;24.91;42.90
9110;BME280;4590;51.462;6.692;2022-07-29T13:27:17;101423.25;;;24.88;43.12
9110;BME280;4590;51.462;6.692;2022-07-29T13:29:42;101424.88;;;24.89;42.98
9110;BME280;4590;51.462;6.692;2022-07-29T13:32:08;101422.50;;;24.91;43.22
9110;BME280;4590;51.462;6.692;2022-07-29T13:34:33;101418.44;;;24.88;43.09
9110;BME280;4590;51.462;6.692;2022-07-29T13:36:58;101419.69;;;24.91;43.38
9110;BME280;4590;51.462;6.692;2022-07-29T13:39:24;101422.06;;;24.89;43.27
9110;BME280;4590;51.462;6.692;2022-07-29T13:41:49;101420.91;;;24.93;43.66
9110;BME280;4590;51.462;6.692;2022-07-29T13:44:15;101423.38;;;24.95;43.28
9110;BME280;4590;51.462;6.692;2022-07-29T13:46:40;101423.69;;;24.90;43.29
9110;BME280;4590;51.462;6.692;2022-07-29T13:49:05;101418.44;;;24.88;43.69
9110;BME280;4590;51.462;6.692;2022-07-29T13:51:30;101419.53;;;24.76;43.78